createdAt,value
2022-07-30T00:00:39.845Z,5.50
2022-07-30T00:03:07.870Z,5.10
2022-07-30T00:05:35.998Z,5.32
2022-07-30T00:08:04.196Z,4.93
2022-07-30T00:10:33.648Z,5.65
2022-07-30T00:13:01.788Z,4.80
2022-07-30T00:15:30.030Z,5.32
2022-07-30T00:17:58.195Z,5.15
2022-07-30T00:20:28.066Z,6.25
2022-07-30T00:22:56.454Z,5.00
2022-07-30T00:25:25.133Z,5.10
2022-07-30T00:27:54.527Z,4.95
2022-07-30T00:30:22.645Z,5.60
2022-07-30T00:32:50.753Z,5.00
2022-07-30T00:35:19.209Z,5.07
2022-07-30T00:37:47.482Z,5.70
2022-07-30T00:40:15.835Z,5.65
2022-07-30T00:42:45.905Z,5.50
2022-07-30T00:45:17.379Z,5.68
2022-07-30T00:47:46.273Z,5.75
2022-07-30T00:50:16.409Z,5.75
2022-07-30T00:52:45.485Z,5.80
2022-07-30T00:55:15.628Z,6.00
2022-07-30T00:57:44.319Z,5.82
2022-07-30T01:00:16.915Z,5.13
2022-07-30T01:02:45.314Z,6.13
2022-07-30T01:05:13.695Z,5.63
2022-07-30T01:07:41.797Z,6.03
2022-07-30T01:10:12.282Z,6.30
2022-07-30T01:12:41.309Z,6.25
2022-07-30T01:15:11.073Z,5.80
2022-07-30T01:17:40.938Z,5.68
2022-07-30T01:20:13.389Z,5.38
2022-07-30T01:22:48.874Z,5.50
2022-07-30T01:25:25.741Z,5.18
2022-07-30T01:27:59.451Z,5.70
2022-07-30T01:30:30.906Z,5.30
2022-07-30T01:33:01.071Z,4.90
2022-07-30T01:35:31.914Z,5.03
2022-07-30T01:38:01.793Z,5.43
2022-07-30T01:40:30.595Z,5.00
2022-07-30T01:43:02.429Z,4.72
2022-07-30T01:45:35.737Z,5.05
2022-07-30T01:48:13.275Z,4.78
2022-07-30T01:50:45.001Z,4.90
2022-07-30T01:53:17.872Z,4.80
2022-07-30T01:55:47.200Z,5.10
2022-07-30T01:58:19.368Z,5.03
2022-07-30T02:00:50.986Z,5.15
2022-07-30T02:03:19.159Z,4.43
2022-07-30T02:05:53.507Z,4.65
2022-07-30T02:08:27.882Z,4.55
2022-07-30T02:11:02.936Z,4.88
2022-07-30T02:13:33.976Z,4.75
2022-07-30T02:16:13.031Z,4.57
2022-07-30T02:18:58.775Z,4.45
2022-07-30T02:21:36.399Z,4.38
2022-07-30T02:24:08.993Z,4.65
2022-07-30T02:26:39.326Z,4.63
2022-07-30T02:29:11.673Z,5.10
2022-07-30T02:31:41.953Z,4.60
2022-07-30T02:34:12.163Z,5.20
2022-07-30T02:36:44.015Z,5.70
2022-07-30T02:39:14.669Z,5.95
2022-07-30T02:41:49.526Z,5.80
2022-07-30T02:44:21.411Z,5.50
2022-07-30T02:46:52.030Z,5.13
2022-07-30T02:49:23.627Z,6.10
2022-07-30T02:51:52.945Z,5.82
2022-07-30T02:54:22.158Z,5.20
2022-07-30T02:56:52.878Z,5.55
2022-07-30T02:59:23.365Z,5.60
2022-07-30T03:01:53.241Z,5.15
2022-07-30T03:04:23.051Z,5.38
2022-07-30T03:06:52.526Z,5.68
2022-07-30T03:09:21.452Z,5.63
2022-07-30T03:11:52.527Z,5.53
2022-07-30T03:14:22.241Z,5.55
2022-07-30T03:16:56.679Z,6.18
2022-07-30T03:19:26.579Z,5.65
2022-07-30T03:21:57.251Z,5.80
2022-07-30T03:24:26.601Z,5.75
2022-07-30T03:26:56.752Z,5.80
2022-07-30T03:29:28.098Z,5.57
2022-07-30T03:31:56.554Z,5.75
2022-07-30T03:34:26.624Z,5.55
2022-07-30T03:36:57.892Z,5.80
2022-07-30T03:39:27.980Z,6.05
2022-07-30T03:41:56.715Z,6.05
2022-07-30T03:44:27.933Z,5.95
2022-07-30T03:46:59.233Z,6.20
2022-07-30T03:49:27.980Z,5.13
2022-07-30T03:51:56.923Z,5.80
2022-07-30T03:54:26.692Z,5.97
2022-07-30T03:57:15.302Z,5.47
2022-07-30T03:59:51.798Z,5.63
2022-07-30T04:02:21.565Z,5.45
2022-07-30T04:05:19.041Z,5.68
2022-07-30T04:07:48.408Z,5.72
2022-07-30T04:10:18.521Z,5.55
2022-07-30T04:13:09.814Z,5.70
2022-07-30T04:16:37.242Z,5.82
2022-07-30T04:18:41.129Z,6.28
2022-07-30T04:21:17.288Z,5.90
2022-07-30T04:24:04.005Z,6.80
2022-07-30T04:26:36.743Z,5.80
2022-07-30T04:29:07.332Z,5.85
2022-07-30T04:31:40.996Z,6.50
2022-07-30T04:34:46.488Z,7.55
2022-07-30T04:37:17.252Z,7.05
2022-07-30T04:39:45.747Z,6.60
2022-07-30T04:42:14.379Z,7.00
2022-07-30T04:44:45.559Z,7.30
2022-07-30T04:47:37.574Z,6.80
2022-07-30T04:50:27.400Z,6.57
2022-07-30T04:52:56.982Z,7.03
2022-07-30T04:55:29.668Z,7.05
2022-07-30T04:57:59.083Z,7.22
2022-07-30T05:00:32.552Z,6.70
2022-07-30T05:03:04.648Z,6.97
2022-07-30T05:05:34.227Z,6.57
2022-07-30T05:08:03.754Z,7.18
2022-07-30T05:10:32.856Z,7.32
2022-07-30T05:13:01.669Z,6.70
2022-07-30T05:15:37.162Z,6.72
2022-07-30T05:18:09.686Z,6.32
2022-07-30T05:20:41.526Z,6.55
2022-07-30T05:23:22.091Z,6.45
2022-07-30T05:26:00.546Z,6.90
2022-07-30T05:28:37.463Z,6.97
2022-07-30T05:31:09.397Z,7.35
2022-07-30T05:33:42.672Z,7.55
2022-07-30T05:36:17.229Z,8.85
2022-07-30T05:38:45.810Z,8.60
2022-07-30T05:41:33.263Z,8.63
2022-07-30T05:44:04.525Z,8.10
2022-07-30T05:46:33.106Z,9.70
2022-07-30T05:49:03.794Z,10.07
2022-07-30T05:51:32.270Z,9.75
2022-07-30T05:54:00.570Z,10.60
2022-07-30T05:56:48.458Z,10.45
2022-07-30T05:59:21.814Z,10.38
2022-07-30T06:02:06.960Z,9.73
2022-07-30T06:05:06.327Z,10.18
2022-07-30T06:07:36.020Z,10.23
2022-07-30T06:10:06.760Z,9.70
2022-07-30T06:12:35.189Z,10.68
2022-07-30T06:15:03.861Z,9.93
2022-07-30T06:17:42.061Z,9.98
2022-07-30T06:20:24.756Z,9.38
2022-07-30T06:23:01.991Z,9.73
2022-07-30T06:25:48.246Z,9.60
2022-07-30T06:31:09.050Z,9.63
2022-07-30T06:33:37.915Z,9.15
2022-07-30T06:36:08.049Z,9.57
2022-07-30T06:38:52.110Z,9.52
2022-07-30T06:41:28.335Z,9.15
2022-07-30T06:43:59.826Z,9.20
2022-07-30T06:46:50.887Z,9.60
2022-07-30T06:49:21.659Z,9.95
2022-07-30T06:51:51.537Z,10.18
2022-07-30T06:54:20.156Z,9.60
2022-07-30T06:57:18.077Z,9.93
2022-07-30T06:59:56.356Z,10.02
2022-07-30T07:02:42.929Z,10.50
2022-07-30T07:05:15.443Z,9.88
2022-07-30T07:07:58.655Z,9.05
2022-07-30T07:10:32.023Z,10.13
2022-07-30T07:13:26.447Z,10.57
2022-07-30T07:15:55.478Z,11.15
2022-07-30T07:18:26.622Z,10.10
2022-07-30T07:21:00.535Z,11.23
2022-07-30T07:23:39.879Z,11.23
2022-07-30T07:26:19.233Z,11.10
2022-07-30T07:28:47.791Z,11.52
2022-07-30T07:32:06.919Z,11.18
2022-07-30T07:34:05.550Z,11.18
2022-07-30T07:36:35.388Z,10.95
2022-07-30T07:39:09.842Z,10.70
2022-07-30T07:41:49.346Z,9.43
2022-07-30T07:44:23.313Z,9.27
2022-07-30T07:46:51.924Z,9.23
2022-07-30T07:49:20.536Z,8.25
2022-07-30T07:51:52.239Z,9.57
2022-07-30T07:54:24.197Z,7.18
2022-07-30T07:56:57.393Z,7.15
2022-07-30T07:59:44.507Z,6.60
2022-07-30T08:02:21.835Z,6.28
2022-07-30T08:04:56.615Z,6.85
2022-07-30T08:07:51.714Z,5.78
2022-07-30T08:10:40.194Z,6.15
2022-07-30T08:13:51.567Z,5.13
2022-07-30T08:16:54.104Z,5.38
2022-07-30T08:19:47.555Z,4.53
2022-07-30T08:22:24.097Z,5.93
2022-07-30T08:24:52.497Z,5.85
2022-07-30T08:27:22.326Z,5.32
2022-07-30T08:29:50.748Z,5.90
2022-07-30T08:32:19.640Z,6.82
2022-07-30T08:34:48.245Z,6.10
2022-07-30T08:37:16.811Z,5.90
2022-07-30T08:39:45.154Z,5.28
2022-07-30T08:42:16.890Z,5.15
2022-07-30T08:44:47.853Z,5.63
2022-07-30T08:47:19.512Z,4.90
2022-07-30T08:50:13.010Z,5.18
2022-07-30T08:53:15.801Z,4.97
2022-07-30T08:55:45.946Z,5.00
2022-07-30T08:58:25.475Z,4.93
2022-07-30T09:03:25.166Z,4.57
2022-07-30T09:05:54.364Z,5.63
2022-07-30T09:08:23.217Z,5.45
2022-07-30T09:10:55.668Z,5.55
2022-07-30T09:13:29.077Z,6.10
2022-07-30T09:16:00.823Z,6.55
2022-07-30T09:18:33.080Z,6.53
2022-07-30T09:21:02.481Z,7.07
2022-07-30T09:23:30.967Z,7.28
2022-07-30T09:26:55.328Z,8.07
2022-07-30T09:29:42.772Z,7.45
2022-07-30T09:32:49.840Z,7.07
2022-07-30T09:35:27.917Z,6.32
2022-07-30T09:38:12.218Z,6.10
2022-07-30T09:41:41.508Z,6.57
2022-07-30T09:44:12.114Z,6.55
2022-07-30T09:46:47.881Z,6.47
2022-07-30T09:49:25.678Z,7.20
2022-07-30T09:51:56.983Z,6.38
2022-07-30T09:54:51.266Z,6.20
2022-07-30T09:57:27.869Z,6.57
2022-07-30T10:00:19.683Z,6.75
2022-07-30T10:03:33.152Z,6.68
2022-07-30T10:06:34.159Z,6.25
2022-07-30T10:09:13.656Z,5.75
2022-07-30T10:11:50.211Z,5.78
2022-07-30T10:14:23.936Z,5.60
2022-07-30T10:17:00.252Z,4.95
2022-07-30T10:19:39.476Z,5.40
2022-07-30T10:22:45.059Z,4.53
2022-07-30T10:25:35.364Z,4.68
2022-07-30T10:28:39.390Z,5.30
2022-07-30T10:31:49.548Z,5.55
2022-07-30T10:34:00.133Z,6.53
2022-07-30T10:36:29.585Z,6.22
2022-07-30T10:38:59.524Z,5.60
2022-07-30T10:41:47.811Z,6.35
2022-07-30T10:44:48.938Z,5.72
2022-07-30T10:47:19.839Z,6.13
2022-07-30T10:50:10.550Z,5.68
2022-07-30T10:52:50.798Z,7.18
2022-07-30T10:55:37.203Z,6.20
2022-07-30T10:58:09.305Z,6.18
2022-07-30T11:01:01.665Z,6.30
2022-07-30T11:03:41.319Z,5.80
2022-07-30T11:06:28.102Z,5.72
2022-07-30T11:08:57.408Z,6.35
2022-07-30T11:12:00.962Z,6.28
2022-07-30T11:15:06.838Z,5.50
2022-07-30T11:18:11.268Z,6.30
2022-07-30T11:20:41.164Z,6.80
2022-07-30T11:23:35.518Z,5.93
2022-07-30T11:26:04.702Z,6.00
2022-07-30T11:28:42.925Z,5.50
2022-07-30T11:31:56.590Z,6.00
2022-07-30T11:34:31.216Z,5.65
2022-07-30T11:37:22.178Z,5.20
2022-07-30T11:40:11.798Z,4.95
2022-07-30T11:42:42.802Z,4.82
2022-07-30T11:45:29.777Z,4.82
2022-07-30T11:48:10.867Z,5.90
2022-07-30T11:50:39.363Z,5.47
2022-07-30T11:53:09.259Z,5.55
2022-07-30T11:55:41.133Z,5.07
2022-07-30T11:58:12.487Z,5.38
2022-07-30T12:00:55.378Z,5.63
2022-07-30T12:03:25.131Z,5.35
2022-07-30T12:05:59.323Z,5.35
2022-07-30T12:08:33.315Z,5.35
2022-07-30T12:11:04.555Z,5.18
2022-07-30T12:13:45.132Z,4.93
2022-07-30T12:16:17.956Z,5.28
2022-07-30T12:18:50.238Z,4.38
2022-07-30T12:21:25.619Z,5.35
2022-07-30T12:24:02.459Z,4.55
2022-07-30T12:26:31.982Z,4.70
2022-07-30T12:29:03.279Z,4.65
2022-07-30T12:31:49.463Z,4.40
2022-07-30T12:34:22.079Z,5.18
2022-07-30T12:36:50.289Z,5.10
2022-07-30T12:39:27.036Z,4.68
2022-07-30T12:41:57.110Z,5.15
2022-07-30T12:44:39.982Z,4.60
2022-07-30T12:47:22.167Z,4.53
2022-07-30T12:49:53.347Z,4.40
2022-07-30T12:52:28.478Z,4.90
2022-07-30T12:55:03.561Z,4.80
2022-07-30T12:58:07.418Z,4.35
2022-07-30T13:00:52.868Z,4.88
2022-07-30T13:03:37.545Z,5.03
2022-07-30T13:06:24.553Z,4.90
2022-07-30T13:09:09.966Z,5.15
2022-07-30T13:12:10.472Z,4.55
2022-07-30T13:14:47.610Z,4.85
2022-07-30T13:17:15.683Z,5.07
2022-07-30T13:19:45.213Z,4.80
2022-07-30T13:22:13.526Z,5.50
2022-07-30T13:24:41.639Z,5.63
2022-07-30T13:27:09.927Z,5.40
2022-07-30T13:29:38.103Z,5.10
2022-07-30T13:32:06.831Z,4.75
2022-07-30T13:34:34.911Z,4.90
2022-07-30T13:37:04.855Z,4.55
2022-07-30T13:39:33.262Z,5.03
2022-07-30T13:42:01.370Z,5.80
2022-07-30T13:44:29.457Z,6.00
2022-07-30T13:47:01.575Z,6.07
2022-07-30T13:49:30.307Z,4.60
2022-07-30T13:51:58.600Z,4.15
2022-07-30T13:54:29.383Z,4.18
2022-07-30T13:56:57.614Z,4.45
2022-07-30T13:59:25.929Z,4.60
2022-07-30T14:01:54.081Z,4.38
2022-07-30T14:04:22.154Z,4.72
2022-07-30T14:06:50.273Z,4.78
2022-07-30T14:09:18.436Z,4.60
2022-07-30T14:11:48.101Z,4.72
2022-07-30T14:14:16.262Z,4.45
2022-07-30T14:16:46.639Z,4.13
2022-07-30T14:19:23.990Z,4.22
2022-07-30T14:21:54.115Z,4.60
2022-07-30T14:24:23.163Z,4.22
2022-07-30T14:26:57.785Z,5.10
2022-07-30T14:29:27.116Z,4.75
2022-07-30T14:31:55.448Z,5.07
2022-07-30T14:34:23.794Z,4.53
2022-07-30T14:36:55.462Z,4.78
2022-07-30T14:39:26.064Z,4.10
2022-07-30T14:41:56.177Z,4.55
2022-07-30T14:44:24.698Z,4.72
2022-07-30T14:47:02.012Z,4.30
2022-07-30T14:49:30.676Z,4.70
2022-07-30T14:51:58.901Z,4.22
2022-07-30T14:54:27.943Z,3.78
2022-07-30T14:56:58.593Z,4.13
2022-07-30T14:59:27.869Z,4.53
2022-07-30T15:01:56.547Z,3.70
2022-07-30T15:04:24.695Z,4.22
2022-07-30T15:06:52.873Z,4.47
2022-07-30T15:09:21.039Z,4.13
2022-07-30T15:12:08.543Z,4.15
2022-07-30T15:14:40.000Z,4.10
2022-07-30T15:17:08.403Z,3.75
2022-07-30T15:19:49.893Z,3.65
2022-07-30T15:22:29.767Z,3.60
2022-07-30T15:24:57.985Z,3.40
2022-07-30T15:27:33.997Z,3.75
2022-07-30T15:30:07.581Z,3.85
2022-07-30T15:32:37.197Z,3.85
2022-07-30T15:35:13.890Z,4.40
2022-07-30T15:37:44.853Z,3.30
2022-07-30T15:40:16.496Z,3.92
2022-07-30T15:45:31.531Z,3.38
2022-07-30T15:48:26.654Z,3.50
2022-07-30T15:51:03.781Z,3.47
2022-07-30T15:53:35.606Z,3.63
2022-07-30T15:56:33.215Z,3.53
2022-07-30T15:59:08.850Z,3.78
2022-07-30T16:01:44.560Z,3.25
2022-07-30T16:04:19.268Z,3.92
2022-07-30T16:07:00.357Z,3.67
2022-07-30T16:09:33.074Z,3.45
2022-07-30T16:12:03.358Z,3.28
2022-07-30T16:14:34.255Z,3.53
2022-07-30T16:17:05.446Z,5.20
2022-07-30T16:19:35.504Z,3.35
2022-07-30T16:22:08.038Z,3.58
2022-07-30T16:24:36.843Z,3.85
2022-07-30T16:27:14.261Z,3.45
2022-07-30T16:29:48.934Z,3.60
2022-07-30T16:32:21.926Z,3.60
2022-07-30T16:34:51.498Z,3.65
2022-07-30T16:37:23.767Z,3.35
2022-07-30T16:39:52.528Z,3.70
2022-07-30T16:42:22.191Z,3.80
2022-07-30T16:44:50.401Z,3.13
2022-07-30T16:47:26.386Z,3.22
2022-07-30T16:49:57.863Z,3.20
2022-07-30T16:52:29.877Z,3.17
2022-07-30T16:55:03.118Z,2.80
2022-07-30T16:57:32.066Z,3.08
2022-07-30T17:00:00.276Z,3.25
2022-07-30T17:02:31.594Z,3.00
2022-07-30T17:04:59.991Z,3.30
2022-07-30T17:07:28.893Z,2.97
2022-07-30T17:09:58.642Z,2.90
2022-07-30T17:12:31.547Z,3.17
2022-07-30T17:15:00.227Z,2.78
2022-07-30T17:17:30.149Z,3.33
2022-07-30T17:20:00.333Z,3.42
2022-07-30T17:22:29.013Z,3.17
2022-07-30T17:24:58.820Z,2.92
2022-07-30T17:27:31.618Z,3.20
2022-07-30T17:29:59.981Z,2.83
2022-07-30T17:32:30.416Z,2.60
2022-07-30T17:34:59.411Z,3.00
2022-07-30T17:37:27.434Z,2.95
2022-07-30T17:40:18.869Z,2.63
2022-07-30T17:42:46.490Z,2.80
2022-07-30T17:45:15.204Z,3.10
2022-07-30T17:47:49.585Z,2.53
2022-07-30T17:53:04.039Z,3.70
2022-07-30T17:55:35.079Z,3.15
2022-07-30T17:58:03.961Z,2.97
2022-07-30T18:00:34.764Z,2.20
2022-07-30T18:03:05.182Z,2.60
2022-07-30T18:05:33.564Z,2.28
2022-07-30T18:08:01.827Z,2.80
2022-07-30T18:10:30.232Z,2.72
2022-07-30T18:12:58.585Z,2.45
2022-07-30T18:15:47.269Z,2.30
2022-07-30T18:18:17.420Z,2.20
2022-07-30T18:20:56.822Z,2.30
2022-07-30T18:23:25.771Z,2.45
2022-07-30T18:26:03.245Z,2.30
2022-07-30T18:28:31.798Z,2.30
2022-07-30T18:31:00.242Z,2.10
2022-07-30T18:33:30.221Z,2.30
2022-07-30T18:35:59.193Z,2.40
2022-07-30T18:38:27.864Z,2.35
2022-07-30T18:40:59.289Z,2.50
2022-07-30T18:43:28.697Z,2.20
2022-07-30T18:45:57.686Z,2.00
2022-07-30T18:48:26.723Z,2.03
2022-07-30T18:50:56.418Z,2.00
2022-07-30T18:53:24.911Z,1.90
2022-07-30T18:55:53.319Z,2.10
2022-07-30T18:58:21.966Z,2.20
2022-07-30T19:00:50.852Z,2.00
2022-07-30T19:03:22.989Z,2.00
2022-07-30T19:05:51.647Z,2.03
2022-07-30T19:08:21.459Z,2.20
2022-07-30T19:10:49.950Z,2.22
2022-07-30T19:13:18.558Z,2.00
2022-07-30T19:15:47.327Z,1.85
2022-07-30T19:18:15.652Z,2.15
2022-07-30T19:20:44.757Z,1.95
2022-07-30T19:23:13.746Z,2.08
2022-07-30T19:25:43.710Z,2.10
2022-07-30T19:28:13.943Z,1.73
2022-07-30T19:30:42.732Z,2.00
2022-07-30T19:33:15.588Z,2.38
2022-07-30T19:35:44.765Z,2.20
2022-07-30T19:38:21.367Z,2.50
2022-07-30T19:40:52.170Z,2.10
2022-07-30T19:43:23.995Z,2.20
2022-07-30T19:45:54.079Z,2.35
2022-07-30T19:48:28.584Z,2.15
2022-07-30T19:50:58.304Z,2.22
2022-07-30T19:53:27.917Z,2.10
2022-07-30T19:56:08.424Z,2.20
2022-07-30T19:58:40.113Z,2.10
2022-07-30T20:01:09.901Z,2.10
2022-07-30T20:03:38.934Z,2.17
2022-07-30T20:06:08.222Z,2.17
2022-07-30T20:08:39.416Z,2.10
2022-07-30T20:11:09.689Z,2.00
2022-07-30T20:13:45.229Z,2.40
2022-07-30T20:16:16.202Z,2.08
2022-07-30T20:18:46.153Z,2.25
2022-07-30T20:21:16.195Z,2.10
2022-07-30T20:23:45.453Z,2.28
2022-07-30T20:26:16.161Z,2.40
2022-07-30T20:28:52.569Z,2.00
2022-07-30T20:31:21.390Z,2.20
2022-07-30T20:33:50.828Z,2.20
2022-07-30T20:36:19.608Z,2.20
2022-07-30T20:38:49.336Z,2.17
2022-07-30T20:41:19.859Z,2.17
2022-07-30T20:43:52.425Z,2.30
2022-07-30T20:46:23.778Z,2.22
2022-07-30T20:48:53.265Z,2.15
2022-07-30T20:51:22.051Z,2.78
2022-07-30T20:54:03.097Z,2.30
2022-07-30T20:56:32.853Z,2.13
2022-07-30T20:59:01.279Z,2.35
2022-07-30T21:01:30.986Z,2.22
2022-07-30T21:03:59.417Z,2.67
2022-07-30T21:06:28.207Z,2.50
2022-07-30T21:08:56.923Z,2.70
2022-07-30T21:11:26.611Z,2.45
2022-07-30T21:13:56.448Z,2.55
2022-07-30T21:16:27.307Z,2.65
2022-07-30T21:18:59.728Z,2.17
2022-07-30T21:21:41.661Z,2.60
2022-07-30T21:24:19.425Z,2.70
2022-07-30T21:26:50.396Z,2.55
2022-07-30T21:29:20.358Z,2.55
2022-07-30T21:32:01.100Z,2.90
2022-07-30T21:34:40.430Z,2.42
2022-07-30T21:37:13.103Z,3.10
2022-07-30T21:39:44.411Z,2.80
2022-07-30T21:42:13.371Z,2.97
2022-07-30T21:44:43.578Z,3.40
2022-07-30T21:47:14.362Z,3.20
2022-07-30T21:49:45.050Z,3.25
2022-07-30T21:52:13.503Z,3.55
2022-07-30T21:54:50.437Z,3.50
2022-07-30T21:57:26.203Z,3.40
2022-07-30T21:59:56.971Z,3.80
2022-07-30T22:02:26.661Z,3.97
2022-07-30T22:04:56.583Z,3.20
2022-07-30T22:07:27.683Z,3.67
2022-07-30T22:09:56.094Z,3.50
2022-07-30T22:12:28.931Z,2.90
2022-07-30T22:14:59.921Z,3.20
2022-07-30T22:17:36.878Z,3.78
2022-07-30T22:20:08.713Z,3.47
2022-07-30T22:22:40.062Z,3.65
2022-07-30T22:25:10.223Z,3.28
2022-07-30T22:27:40.155Z,3.50
2022-07-30T22:30:27.004Z,3.53
2022-07-30T22:32:55.701Z,3.30
2022-07-30T22:35:34.098Z,3.45
2022-07-30T22:38:03.465Z,3.75
2022-07-30T22:40:32.156Z,3.35
2022-07-30T22:43:04.168Z,3.50
2022-07-30T22:45:48.827Z,3.53
2022-07-30T22:48:19.172Z,3.50
2022-07-30T22:50:48.391Z,3.90
2022-07-30T22:54:03.657Z,3.97
2022-07-30T22:56:15.725Z,4.35
2022-07-30T22:58:45.249Z,4.03
2022-07-30T23:01:19.299Z,3.53
2022-07-30T23:03:51.674Z,3.65
2022-07-30T23:06:20.583Z,3.97
2022-07-30T23:08:49.242Z,3.90
2022-07-30T23:11:17.819Z,3.33
2022-07-30T23:13:46.277Z,4.05
2022-07-30T23:16:15.554Z,3.95
2022-07-30T23:18:45.404Z,4.43
2022-07-30T23:21:14.523Z,4.35
2022-07-30T23:23:43.351Z,5.03
2022-07-30T23:26:11.844Z,4.72
2022-07-30T23:28:40.673Z,4.10
2022-07-30T23:31:09.311Z,4.30
2022-07-30T23:33:37.746Z,4.30
2022-07-30T23:36:08.939Z,4.18
2022-07-30T23:38:38.122Z,4.13
2022-07-30T23:41:06.889Z,4.15
2022-07-30T23:43:35.914Z,4.40
2022-07-30T23:46:09.489Z,4.60
2022-07-30T23:48:39.627Z,4.03
2022-07-30T23:51:09.373Z,4.65
2022-07-30T23:53:37.994Z,4.22
2022-07-30T23:56:08.078Z,4.20
2022-07-30T23:58:36.409Z,4.63
